createdAt,value
2022-12-13T00:01:52.696Z,18.18
2022-12-13T00:05:12.170Z,15.15
2022-12-13T00:08:28.577Z,15.63
2022-12-13T00:11:45.321Z,15.78
2022-12-13T00:15:01.860Z,15.45
2022-12-13T00:18:18.158Z,16.38
2022-12-13T00:21:38.185Z,13.53
2022-12-13T00:24:54.514Z,15.50
2022-12-13T00:28:11.046Z,16.23
2022-12-13T00:34:51.642Z,14.68
2022-12-13T00:38:08.784Z,14.55
2022-12-13T00:41:27.637Z,13.48
2022-12-13T00:44:44.083Z,14.13
2022-12-13T00:48:00.239Z,13.90
2022-12-13T00:51:18.917Z,13.68
2022-12-13T00:54:35.143Z,13.73
2022-12-13T00:57:51.411Z,13.68
2022-12-13T01:01:16.634Z,13.40
2022-12-13T01:04:33.045Z,14.70
2022-12-13T01:07:51.704Z,11.23
2022-12-13T01:11:08.605Z,13.93
2022-12-13T01:14:26.119Z,12.80
2022-12-13T01:17:44.297Z,15.70
2022-12-13T01:21:11.628Z,14.53
2022-12-13T01:24:28.334Z,12.48
2022-12-13T01:27:44.660Z,14.45
2022-12-13T01:31:10.008Z,15.58
2022-12-13T01:34:32.814Z,14.50
2022-12-13T01:37:49.912Z,15.05
2022-12-13T01:41:17.052Z,14.83
2022-12-13T01:45:09.782Z,17.40
2022-12-13T01:48:30.382Z,19.98
2022-12-13T01:51:52.603Z,20.90
2022-12-13T01:55:12.551Z,19.60
2022-12-13T01:58:30.134Z,22.48
2022-12-13T02:01:47.836Z,23.10
2022-12-13T02:05:12.232Z,22.80
2022-12-13T02:08:35.745Z,22.90
2022-12-13T02:11:51.995Z,23.15
2022-12-13T02:15:13.128Z,21.80
2022-12-13T02:18:41.302Z,21.23
2022-12-13T02:22:04.991Z,19.63
2022-12-13T02:25:48.052Z,19.53
2022-12-13T02:29:30.790Z,19.40
2022-12-13T02:32:44.438Z,18.30
2022-12-13T02:36:12.718Z,21.00
2022-12-13T02:39:34.349Z,17.88
2022-12-13T02:42:56.391Z,20.03
2022-12-13T02:46:15.497Z,18.20
2022-12-13T02:49:36.649Z,18.50
2022-12-13T02:52:54.048Z,17.83
2022-12-13T02:56:10.535Z,19.48
2022-12-13T02:59:27.018Z,17.88
2022-12-13T03:02:55.937Z,19.70
2022-12-13T03:06:37.829Z,18.73
2022-12-13T03:10:01.061Z,20.83
2022-12-13T03:13:36.713Z,21.05
2022-12-13T03:16:55.542Z,22.23
2022-12-13T03:20:22.717Z,20.55
2022-12-13T03:23:32.641Z,23.10
2022-12-13T03:26:49.977Z,21.55
2022-12-13T03:30:06.867Z,21.03
2022-12-13T03:33:23.364Z,19.65
2022-12-13T03:36:40.475Z,20.58
2022-12-13T03:39:57.001Z,20.58
2022-12-13T03:43:14.526Z,19.30
2022-12-13T03:46:33.198Z,20.80
2022-12-13T03:49:54.217Z,20.58
2022-12-13T03:53:10.132Z,22.75
2022-12-13T03:56:30.163Z,23.15
2022-12-13T03:59:46.841Z,22.40
2022-12-13T04:03:03.339Z,22.65
2022-12-13T04:06:22.399Z,20.95
2022-12-13T04:09:39.053Z,23.35
2022-12-13T04:13:10.172Z,24.30
2022-12-13T04:16:27.196Z,22.88
2022-12-13T04:19:43.528Z,24.33
2022-12-13T04:22:59.763Z,24.30
2022-12-13T04:26:16.236Z,25.08
2022-12-13T04:29:34.266Z,27.03
2022-12-13T04:32:50.279Z,24.88
2022-12-13T04:36:06.447Z,24.20
2022-12-13T04:39:23.067Z,27.00
2022-12-13T04:42:40.405Z,25.75
2022-12-13T04:45:57.222Z,24.30
2022-12-13T04:49:13.774Z,26.95
2022-12-13T04:52:32.801Z,24.45
2022-12-13T04:55:49.846Z,23.48
2022-12-13T04:59:06.674Z,23.68
2022-12-13T05:02:23.514Z,25.08
2022-12-13T05:05:43.019Z,23.15
2022-12-13T05:09:00.746Z,23.73
2022-12-13T05:12:22.437Z,23.23
2022-12-13T05:18:50.458Z,25.03
2022-12-13T05:22:06.684Z,27.23
2022-12-13T05:25:23.425Z,20.00
2022-12-13T05:28:39.862Z,23.58
2022-12-13T05:31:57.330Z,20.68
2022-12-13T05:35:22.325Z,24.65
2022-12-13T05:38:34.347Z,21.48
2022-12-13T05:41:50.578Z,22.58
2022-12-13T05:45:06.607Z,23.58
2022-12-13T05:48:25.327Z,26.05
2022-12-13T05:51:41.504Z,21.70
2022-12-13T05:55:01.526Z,22.85
2022-12-13T05:58:23.050Z,23.68
2022-12-13T06:01:43.833Z,20.80
2022-12-13T06:04:57.064Z,20.43
2022-12-13T06:08:23.889Z,21.13
2022-12-13T06:11:32.658Z,19.88
2022-12-13T06:14:49.262Z,21.60
2022-12-13T06:18:07.012Z,19.98
2022-12-13T06:21:23.212Z,16.80
2022-12-13T06:24:40.557Z,18.73
2022-12-13T06:27:57.550Z,19.33
2022-12-13T06:31:16.113Z,17.73
2022-12-13T06:34:32.366Z,18.53
2022-12-13T06:37:52.307Z,18.78
2022-12-13T06:41:19.603Z,20.03
2022-12-13T06:44:40.450Z,17.70
2022-12-13T06:47:56.575Z,19.40
2022-12-13T06:51:22.892Z,17.73
2022-12-13T06:54:35.404Z,18.75
2022-12-13T06:57:53.274Z,26.70
2022-12-13T07:01:24.025Z,29.95
2022-12-13T07:04:33.133Z,28.18
2022-12-13T07:07:49.288Z,20.03
2022-12-13T07:11:06.099Z,20.10
2022-12-13T07:14:24.423Z,21.88
2022-12-13T07:17:40.945Z,20.70
2022-12-13T07:20:58.403Z,19.78
2022-12-13T07:24:18.025Z,19.00
2022-12-13T07:30:49.154Z,19.20
2022-12-13T07:34:05.904Z,18.00
2022-12-13T07:37:30.483Z,19.25
2022-12-13T07:40:44.116Z,19.93
2022-12-13T07:44:02.479Z,18.48
2022-12-13T07:47:25.995Z,18.95
2022-12-13T07:50:44.171Z,19.50
2022-12-13T07:54:00.412Z,16.80
2022-12-13T07:57:17.079Z,20.30
2022-12-13T08:00:33.942Z,18.28
2022-12-13T08:03:52.564Z,17.23
2022-12-13T08:07:09.625Z,22.98
2022-12-13T08:10:31.983Z,19.10
2022-12-13T08:13:49.998Z,16.65
2022-12-13T08:17:08.889Z,20.68
2022-12-13T08:20:25.603Z,20.20
2022-12-13T08:23:43.167Z,15.23
2022-12-13T08:27:01.902Z,16.33
2022-12-13T08:30:22.789Z,13.78
2022-12-13T08:33:41.299Z,13.98
2022-12-13T08:37:02.499Z,11.60
2022-12-13T08:40:22.655Z,11.18
2022-12-13T08:43:39.406Z,10.58
2022-12-13T08:46:55.749Z,13.15
2022-12-13T08:50:13.527Z,16.30
2022-12-13T08:53:31.769Z,13.58
2022-12-13T08:56:48.476Z,14.30
2022-12-13T09:00:05.213Z,16.45
2022-12-13T09:03:24.090Z,13.58
2022-12-13T09:06:40.546Z,14.93
2022-12-13T09:09:56.924Z,14.83
2022-12-13T09:13:13.535Z,13.75
2022-12-13T09:16:35.948Z,13.95
2022-12-13T09:19:49.956Z,13.78
2022-12-13T09:23:13.798Z,15.10
2022-12-13T09:26:28.601Z,14.90
2022-12-13T09:29:45.673Z,15.40
2022-12-13T09:33:28.536Z,15.28
2022-12-13T09:36:25.882Z,16.43
2022-12-13T09:39:42.133Z,16.35
2022-12-13T09:43:13.304Z,18.93
2022-12-13T09:46:34.854Z,18.10
2022-12-13T09:49:54.344Z,16.98
2022-12-13T09:53:21.370Z,16.68
2022-12-13T09:56:35.029Z,18.88
2022-12-13T09:59:54.723Z,312.98
2022-12-13T10:03:21.288Z,115.00
2022-12-13T10:06:38.852Z,40.65
2022-12-13T10:09:55.973Z,30.08
2022-12-13T10:13:22.672Z,18.80
2022-12-13T10:16:48.060Z,17.03
2022-12-13T10:20:05.549Z,14.98
2022-12-13T10:23:42.631Z,13.65
2022-12-13T10:26:47.427Z,15.05
2022-12-13T10:30:18.142Z,13.43
2022-12-13T10:33:39.247Z,14.93
2022-12-13T10:36:59.537Z,14.25
2022-12-13T10:40:33.430Z,17.48
2022-12-13T10:43:50.877Z,17.15
2022-12-13T10:47:26.995Z,19.63
2022-12-13T10:50:44.320Z,17.53
2022-12-13T10:54:07.382Z,16.88
2022-12-13T10:57:28.401Z,19.03
2022-12-13T11:00:50.084Z,18.75
2022-12-13T11:04:11.698Z,19.23
2022-12-13T11:07:37.235Z,20.83
2022-12-13T11:10:58.119Z,20.45
2022-12-13T11:14:32.248Z,19.40
2022-12-13T11:17:48.350Z,15.53
2022-12-13T11:21:08.806Z,17.95
2022-12-13T11:24:31.842Z,18.88
2022-12-13T11:28:01.779Z,19.05
2022-12-13T11:31:25.718Z,18.25
2022-12-13T11:34:47.941Z,14.95
2022-12-13T11:38:12.096Z,14.38
2022-12-13T11:41:33.718Z,14.58
2022-12-13T11:44:58.310Z,14.33
2022-12-13T11:48:19.392Z,15.05
2022-12-13T11:51:40.706Z,13.13
2022-12-13T11:55:18.580Z,14.08
2022-12-13T12:02:17.038Z,19.83
2022-12-13T12:05:40.752Z,14.68
2022-12-13T12:09:03.123Z,14.35
2022-12-13T12:12:25.836Z,17.10
2022-12-13T12:15:49.965Z,17.98
2022-12-13T12:19:08.156Z,16.98
2022-12-13T12:22:39.280Z,17.40
2022-12-13T12:25:59.817Z,18.20
2022-12-13T12:29:39.403Z,17.20
2022-12-13T12:33:06.434Z,15.50
2022-12-13T12:36:50.276Z,18.30
2022-12-13T12:40:52.254Z,15.75
2022-12-13T12:43:52.549Z,15.50
2022-12-13T12:47:48.920Z,16.45
2022-12-13T12:50:52.456Z,16.98
2022-12-13T12:54:20.692Z,15.48
2022-12-13T12:57:45.871Z,16.85
2022-12-13T13:01:15.647Z,14.73
2022-12-13T13:04:39.982Z,15.35
2022-12-13T13:08:01.868Z,16.93
2022-12-13T13:11:25.615Z,16.18
2022-12-13T13:14:44.907Z,18.93
2022-12-13T13:18:01.545Z,16.48
2022-12-13T13:21:53.577Z,68.45
2022-12-13T13:25:53.947Z,30.78
2022-12-13T13:28:54.901Z,21.33
2022-12-13T13:32:35.401Z,18.93
2022-12-13T13:35:59.760Z,17.18
2022-12-13T13:39:23.238Z,19.78
2022-12-13T13:42:41.282Z,19.75
2022-12-13T13:46:18.518Z,20.23
2022-12-13T13:49:35.319Z,17.93
2022-12-13T13:53:00.958Z,19.95
2022-12-13T13:56:41.244Z,20.65
2022-12-13T14:00:23.072Z,22.93
2022-12-13T14:04:17.351Z,22.53
2022-12-13T14:08:11.672Z,25.70
2022-12-13T14:12:03.585Z,23.83
2022-12-13T14:16:07.733Z,25.60
2022-12-13T14:20:13.207Z,29.65
2022-12-13T14:23:46.954Z,29.98
2022-12-13T14:27:30.590Z,25.60
2022-12-13T14:30:57.036Z,27.05
2022-12-13T14:34:12.624Z,30.78
2022-12-13T14:37:38.536Z,26.25
2022-12-13T14:41:01.447Z,29.75
2022-12-13T14:44:34.675Z,30.55
2022-12-13T14:47:52.587Z,31.48
2022-12-13T14:51:10.009Z,179.88
2022-12-13T14:54:30.942Z,45.18
2022-12-13T15:01:01.762Z,27.75
2022-12-13T15:04:34.950Z,26.55
2022-12-13T15:07:53.478Z,29.38
2022-12-13T15:11:10.138Z,28.25
2022-12-13T15:14:31.483Z,30.75
2022-12-13T15:17:48.857Z,37.33
2022-12-13T15:21:09.981Z,34.80
2022-12-13T15:24:34.261Z,33.65
2022-12-13T15:27:57.576Z,31.15
2022-12-13T15:31:16.527Z,30.43
2022-12-13T15:34:44.991Z,30.80
2022-12-13T15:38:05.214Z,28.90
2022-12-13T15:41:31.414Z,28.45
2022-12-13T15:44:55.185Z,33.23
2022-12-13T15:48:22.298Z,33.70
2022-12-13T15:51:38.614Z,34.88
2022-12-13T15:55:04.957Z,35.73
2022-12-13T15:58:37.494Z,31.05
2022-12-13T16:01:58.867Z,32.35
2022-12-13T16:05:31.856Z,32.80
2022-12-13T16:08:50.805Z,36.43
2022-12-13T16:12:11.545Z,34.55
2022-12-13T16:15:31.041Z,36.35
2022-12-13T16:18:59.320Z,33.15
2022-12-13T16:22:15.973Z,31.65
2022-12-13T16:25:32.801Z,32.78
2022-12-13T16:28:49.311Z,34.45
2022-12-13T16:32:09.134Z,29.13
2022-12-13T16:35:26.523Z,30.50
2022-12-13T16:38:44.726Z,29.45
2022-12-13T16:42:01.568Z,31.20
2022-12-13T16:48:43.156Z,29.75
2022-12-13T16:52:00.419Z,28.30
2022-12-13T16:55:22.549Z,27.98
2022-12-13T16:58:38.856Z,25.93
2022-12-13T17:01:58.871Z,26.03
2022-12-13T17:05:22.628Z,25.40
2022-12-13T17:08:39.561Z,36.58
2022-12-13T17:11:57.251Z,30.45
2022-12-13T17:15:16.502Z,23.53
2022-12-13T17:18:33.659Z,24.98
2022-12-13T17:21:50.525Z,25.80
2022-12-13T17:25:07.022Z,22.80
2022-12-13T17:28:23.274Z,23.23
2022-12-13T17:31:40.269Z,22.58
2022-12-13T17:34:58.661Z,21.60
2022-12-13T17:38:15.581Z,24.85
2022-12-13T17:41:35.319Z,22.23
2022-12-13T17:44:55.850Z,24.68
2022-12-13T17:48:12.844Z,24.30
2022-12-13T17:51:29.435Z,25.78
2022-12-13T17:54:47.401Z,23.28
2022-12-13T17:58:07.153Z,23.85
2022-12-13T18:01:29.815Z,24.05
2022-12-13T18:04:47.334Z,23.05
2022-12-13T18:08:03.681Z,21.55
2022-12-13T18:11:32.900Z,24.23
2022-12-13T18:14:44.833Z,29.75
2022-12-13T18:18:12.122Z,34.33
2022-12-13T18:21:27.742Z,30.83
2022-12-13T18:24:44.089Z,24.03
2022-12-13T18:28:03.698Z,23.70
2022-12-13T18:31:23.232Z,32.05
2022-12-13T18:34:40.087Z,31.55
2022-12-13T18:38:00.232Z,35.80
2022-12-13T18:41:19.833Z,36.45
2022-12-13T18:44:39.233Z,36.20
2022-12-13T18:51:19.194Z,39.43
2022-12-13T18:54:37.703Z,38.98
2022-12-13T18:57:54.096Z,39.60
2022-12-13T19:01:12.343Z,42.10
2022-12-13T19:04:28.902Z,39.63
2022-12-13T19:07:53.821Z,41.17
2022-12-13T19:11:12.701Z,39.70
2022-12-13T19:14:29.798Z,41.73
2022-12-13T19:17:47.363Z,39.68
2022-12-13T19:21:04.655Z,39.05
2022-12-13T19:24:23.753Z,41.83
2022-12-13T19:27:45.604Z,39.63
2022-12-13T19:31:05.826Z,47.43
2022-12-13T19:34:24.090Z,38.90
2022-12-13T19:37:42.022Z,38.33
2022-12-13T19:44:19.222Z,36.43
2022-12-13T19:47:39.005Z,33.98
2022-12-13T19:50:58.281Z,37.40
2022-12-13T19:54:16.083Z,32.53
2022-12-13T19:57:33.730Z,30.43
2022-12-13T20:00:50.954Z,29.43
2022-12-13T20:04:07.719Z,24.60
2022-12-13T20:07:26.914Z,27.00
2022-12-13T20:10:46.278Z,28.93
2022-12-13T20:14:05.122Z,25.85
2022-12-13T20:17:21.959Z,23.20
2022-12-13T20:21:09.709Z,23.13
2022-12-13T20:23:58.805Z,29.83
2022-12-13T20:27:15.605Z,37.08
2022-12-13T20:30:33.773Z,40.95
2022-12-13T20:33:51.288Z,48.75
2022-12-13T20:37:08.715Z,53.05
2022-12-13T20:40:26.379Z,54.40
2022-12-13T20:43:44.429Z,53.15
2022-12-13T20:47:04.446Z,51.98
2022-12-13T20:50:21.724Z,55.35
2022-12-13T20:53:43.115Z,54.83
2022-12-13T20:57:05.903Z,56.20
2022-12-13T21:00:27.655Z,60.03
2022-12-13T21:03:45.275Z,52.33
2022-12-13T21:07:05.855Z,53.28
2022-12-13T21:10:22.347Z,54.00
2022-12-13T21:13:39.274Z,58.95
2022-12-13T21:16:57.691Z,58.28
2022-12-13T21:20:15.717Z,59.95
2022-12-13T21:23:32.612Z,56.18
2022-12-13T21:26:49.282Z,57.85
2022-12-13T21:30:05.738Z,60.65
2022-12-13T21:33:22.214Z,64.63
2022-12-13T21:36:41.913Z,67.65
2022-12-13T21:39:59.156Z,63.93
2022-12-13T21:43:19.391Z,64.75
2022-12-13T21:47:10.369Z,76.08
2022-12-13T21:49:55.592Z,91.80
2022-12-13T21:53:11.947Z,86.25
2022-12-13T21:56:47.657Z,79.10
2022-12-13T22:00:03.950Z,81.20
2022-12-13T22:03:22.088Z,74.03
2022-12-13T22:06:38.459Z,85.28
2022-12-13T22:09:56.659Z,73.80
2022-12-13T22:13:13.272Z,72.75
2022-12-13T22:16:29.783Z,75.15
2022-12-13T22:19:48.644Z,74.43
2022-12-13T22:23:05.921Z,86.83
2022-12-13T22:26:22.432Z,82.20
2022-12-13T22:29:40.402Z,79.55
2022-12-13T22:32:59.732Z,81.65
2022-12-13T22:36:21.100Z,76.20
2022-12-13T22:39:37.698Z,74.78
2022-12-13T22:42:54.017Z,72.18
2022-12-13T22:46:13.580Z,78.28
2022-12-13T22:49:30.211Z,80.10
2022-12-13T22:52:47.606Z,74.78
2022-12-13T22:56:13.577Z,76.58
2022-12-13T22:59:29.817Z,77.38
2022-12-13T23:02:46.377Z,76.73
2022-12-13T23:06:06.424Z,79.75
2022-12-13T23:09:24.594Z,79.28
2022-12-13T23:12:55.046Z,73.10
2022-12-13T23:16:15.241Z,73.65
2022-12-13T23:19:41.549Z,74.40
2022-12-13T23:22:50.429Z,76.73
2022-12-13T23:26:15.480Z,81.33
2022-12-13T23:29:33.898Z,75.45
2022-12-13T23:32:50.203Z,73.60
2022-12-13T23:36:10.601Z,66.70
2022-12-13T23:39:27.070Z,72.45
2022-12-13T23:42:43.894Z,73.60
2022-12-13T23:46:00.330Z,75.45
2022-12-13T23:49:17.962Z,72.88
2022-12-13T23:52:34.501Z,75.75
2022-12-13T23:55:51.302Z,78.53
2022-12-13T23:59:07.639Z,73.58
